createdAt,value
2018-12-19T00:00:39.167Z,0.86
2018-12-19T00:01:39.156Z,0.76
2018-12-19T00:02:39.145Z,0.83
2018-12-19T00:03:39.138Z,0.79
2018-12-19T00:04:39.149Z,0.88
2018-12-19T00:05:39.114Z,0.84
2018-12-19T00:06:39.099Z,0.93
2018-12-19T00:07:39.090Z,0.84
2018-12-19T00:08:39.081Z,0.76
2018-12-19T00:09:39.105Z,0.79
2018-12-19T00:10:39.059Z,0.84
2018-12-19T00:11:39.046Z,0.86
2018-12-19T00:12:39.037Z,0.78
2018-12-19T00:13:39.025Z,0.84
2018-12-19T00:14:39.016Z,0.83
2018-12-19T00:15:39.029Z,0.86
2018-12-19T00:16:38.992Z,0.91
2018-12-19T00:17:38.982Z,0.79
2018-12-19T00:18:38.973Z,0.79
2018-12-19T00:19:38.960Z,0.75
2018-12-19T00:20:38.977Z,0.76
2018-12-19T00:21:38.940Z,0.70
2018-12-19T00:22:38.929Z,0.70
2018-12-19T00:23:38.918Z,0.75
2018-12-19T00:24:38.907Z,0.84
2018-12-19T00:25:38.925Z,0.68
2018-12-19T00:26:38.884Z,0.79
2018-12-19T00:27:38.874Z,0.70
2018-12-19T00:28:38.862Z,0.78
2018-12-19T00:29:38.854Z,0.76
2018-12-19T00:30:38.881Z,0.73
2018-12-19T00:31:38.879Z,0.73
2018-12-19T00:32:38.820Z,0.72
2018-12-19T00:33:38.810Z,0.69
2018-12-19T00:34:38.798Z,0.68
2018-12-19T00:35:38.788Z,0.76
2018-12-19T00:36:38.800Z,0.75
2018-12-19T00:37:38.767Z,0.76
2018-12-19T00:38:38.756Z,0.69
2018-12-19T00:39:38.751Z,0.83
2018-12-19T00:40:38.736Z,0.79
2018-12-19T00:41:38.761Z,0.72
2018-12-19T00:42:38.748Z,0.78
2018-12-19T00:43:38.702Z,0.70
2018-12-19T00:44:38.690Z,0.75
2018-12-19T00:45:38.682Z,0.69
2018-12-19T00:46:38.670Z,0.68
2018-12-19T00:47:38.686Z,0.73
2018-12-19T00:48:38.646Z,0.76
2018-12-19T00:49:38.647Z,0.84
2018-12-19T00:50:38.628Z,0.73
2018-12-19T00:51:38.615Z,0.84
2018-12-19T00:52:38.631Z,0.72
2018-12-19T00:53:38.595Z,0.88
2018-12-19T00:54:38.584Z,0.78
2018-12-19T00:55:38.571Z,0.86
2018-12-19T00:56:38.562Z,0.83
2018-12-19T00:57:38.589Z,0.80
2018-12-19T00:58:38.543Z,0.90
2018-12-19T00:59:38.554Z,0.83
2018-12-19T01:00:38.517Z,0.88
2018-12-19T01:01:38.508Z,0.78
2018-12-19T01:02:38.499Z,0.76
2018-12-19T01:03:38.517Z,0.78
2018-12-19T01:04:38.477Z,0.84
2018-12-19T01:05:38.466Z,0.78
2018-12-19T01:06:38.458Z,0.79
2018-12-19T01:07:38.446Z,0.75
2018-12-19T01:08:38.458Z,0.86
2018-12-19T01:09:38.423Z,0.84
2018-12-19T01:10:38.410Z,0.90
2018-12-19T01:11:38.404Z,0.86
2018-12-19T01:12:38.389Z,0.86
2018-12-19T01:13:38.415Z,0.79
2018-12-19T01:14:38.370Z,0.88
2018-12-19T01:15:38.358Z,0.88
2018-12-19T01:16:38.348Z,0.88
2018-12-19T01:17:38.341Z,0.88
2018-12-19T01:18:38.326Z,0.87
2018-12-19T01:19:38.338Z,0.90
2018-12-19T01:20:38.303Z,0.90
2018-12-19T01:21:38.294Z,0.88
2018-12-19T01:22:38.285Z,0.98
2018-12-19T01:23:38.273Z,0.88
2018-12-19T01:24:38.285Z,0.90
2018-12-19T01:25:38.251Z,0.94
2018-12-19T01:26:38.238Z,0.91
2018-12-19T01:27:38.231Z,0.91
2018-12-19T01:28:38.218Z,0.90
2018-12-19T01:29:38.243Z,0.91
2018-12-19T01:30:38.195Z,0.88
2018-12-19T01:31:38.183Z,0.84
2018-12-19T01:32:38.175Z,0.93
2018-12-19T01:33:38.164Z,0.87
2018-12-19T01:34:38.152Z,0.90
2018-12-19T01:35:38.168Z,0.90
2018-12-19T01:36:38.132Z,0.93
2018-12-19T01:37:38.121Z,0.94
2018-12-19T01:38:38.112Z,0.91
2018-12-19T01:39:38.100Z,0.93
2018-12-19T01:40:38.114Z,0.94
2018-12-19T01:41:38.080Z,0.90
2018-12-19T01:42:38.067Z,0.93
2018-12-19T01:43:38.056Z,0.96
2018-12-19T01:44:38.046Z,0.94
2018-12-19T01:45:38.061Z,0.94
2018-12-19T01:46:38.034Z,0.93
2018-12-19T01:47:38.013Z,0.97
2018-12-19T01:48:38.006Z,0.96
2018-12-19T01:49:37.992Z,0.94
2018-12-19T01:50:38.009Z,1.04
2018-12-19T01:51:37.972Z,1.04
2018-12-19T01:52:37.959Z,1.04
2018-12-19T01:53:37.947Z,1.02
2018-12-19T01:54:37.937Z,1.04
2018-12-19T01:55:37.951Z,1.08
2018-12-19T01:56:37.935Z,1.04
2018-12-19T01:57:37.905Z,1.02
2018-12-19T01:58:37.895Z,1.00
2018-12-19T01:59:37.886Z,1.02
2018-12-19T02:00:37.909Z,1.02
2018-12-19T02:01:37.862Z,1.04
2018-12-19T02:02:37.851Z,0.97
2018-12-19T02:03:37.847Z,1.02
2018-12-19T02:04:37.830Z,0.98
2018-12-19T02:05:37.818Z,0.97
2018-12-19T02:06:37.830Z,1.00
2018-12-19T02:07:37.797Z,1.00
2018-12-19T02:08:37.786Z,1.02
2018-12-19T02:09:37.778Z,0.97
2018-12-19T02:10:37.764Z,0.97
2018-12-19T02:11:37.791Z,0.98
2018-12-19T02:12:37.744Z,0.98
2018-12-19T02:13:37.734Z,1.00
2018-12-19T02:14:37.722Z,1.00
2018-12-19T02:15:37.713Z,0.90
2018-12-19T02:16:37.701Z,0.98
2018-12-19T02:17:37.716Z,1.00
2018-12-19T02:18:37.679Z,0.93
2018-12-19T02:19:37.669Z,0.98
2018-12-19T02:20:37.657Z,0.93
2018-12-19T02:21:37.647Z,0.97
2018-12-19T02:22:37.673Z,0.91
2018-12-19T02:23:37.624Z,0.94
2018-12-19T02:24:37.614Z,0.93
2018-12-19T02:25:37.605Z,0.88
2018-12-19T02:26:37.594Z,0.84
2018-12-19T02:27:37.590Z,0.88
2018-12-19T02:28:37.597Z,0.88
2018-12-19T02:29:37.561Z,0.91
2018-12-19T02:30:37.551Z,0.91
2018-12-19T02:31:37.540Z,0.90
2018-12-19T02:32:37.530Z,0.84
2018-12-19T02:33:37.557Z,0.94
2018-12-19T02:34:37.508Z,0.90
2018-12-19T02:35:37.497Z,0.91
2018-12-19T02:36:37.488Z,0.80
2018-12-19T02:37:37.478Z,0.93
2018-12-19T02:38:37.465Z,0.91
2018-12-19T02:39:37.479Z,0.78
2018-12-19T02:40:37.512Z,0.79
2018-12-19T02:41:37.430Z,0.84
2018-12-19T02:42:37.421Z,0.86
2018-12-19T02:43:37.410Z,0.80
2018-12-19T02:44:37.433Z,0.80
2018-12-19T02:45:37.388Z,0.80
2018-12-19T02:46:37.380Z,0.87
2018-12-19T02:47:37.369Z,0.84
2018-12-19T02:48:37.356Z,0.80
2018-12-19T04:06:02.285Z,0.75
2018-12-19T04:06:29.717Z,0.70
2018-12-19T04:07:29.704Z,0.80
2018-12-19T04:08:29.696Z,0.76
2018-12-19T04:09:29.686Z,0.75
2018-12-19T04:10:29.672Z,0.78
2018-12-19T04:11:29.701Z,0.76
2018-12-19T04:12:29.666Z,0.72
2018-12-19T04:13:29.641Z,0.80
2018-12-19T04:14:29.632Z,0.72
2018-12-19T04:15:29.619Z,0.86
2018-12-19T04:16:29.611Z,0.80
2018-12-19T04:17:29.623Z,0.79
2018-12-19T04:18:29.590Z,0.90
2018-12-19T04:19:29.580Z,0.78
2018-12-19T04:20:29.569Z,0.88
2018-12-19T04:21:29.558Z,0.83
2018-12-19T04:22:29.587Z,0.79
2018-12-19T04:23:29.535Z,0.86
2018-12-19T04:24:29.526Z,0.70
2018-12-19T04:25:29.518Z,0.84
2018-12-19T04:26:29.505Z,0.75
2018-12-19T04:27:29.493Z,0.90
2018-12-19T04:28:29.508Z,0.84
2018-12-19T04:29:29.481Z,0.84
2018-12-19T04:30:29.465Z,0.79
2018-12-19T04:31:29.462Z,0.78
2018-12-19T04:32:29.442Z,0.76
2018-12-19T04:33:29.467Z,0.84
2018-12-19T04:34:29.419Z,0.78
2018-12-19T04:35:29.410Z,0.88
2018-12-19T04:36:29.399Z,0.79
2018-12-19T04:37:29.388Z,0.79
2018-12-19T04:38:29.376Z,0.86
2018-12-19T04:39:29.396Z,0.88
2018-12-19T04:40:29.355Z,0.76
2018-12-19T04:41:29.346Z,0.83
2018-12-19T04:42:29.339Z,0.80
2018-12-19T04:43:29.324Z,0.76
2018-12-19T04:44:29.340Z,0.80
2018-12-19T04:45:29.304Z,0.83
2018-12-19T04:46:29.292Z,0.86
2018-12-19T04:47:29.280Z,0.84
2018-12-19T04:48:29.298Z,0.78
2018-12-19T04:49:29.264Z,0.83
2018-12-19T04:50:29.251Z,0.91
2018-12-19T04:51:29.238Z,0.88
2018-12-19T04:52:29.232Z,0.91
2018-12-19T04:53:29.242Z,0.90
2018-12-19T04:54:29.207Z,0.90
2018-12-19T04:55:29.199Z,0.87
2018-12-19T04:56:29.185Z,0.91
2018-12-19T04:57:29.174Z,0.87
2018-12-19T04:58:29.188Z,0.87
2018-12-19T04:59:29.154Z,0.94
2018-12-19T05:00:29.143Z,0.94
2018-12-19T05:01:29.131Z,0.93
2018-12-19T05:02:29.122Z,0.90
2018-12-19T05:03:29.135Z,0.94
2018-12-19T05:04:29.099Z,1.00
2018-12-19T05:05:29.090Z,0.93
2018-12-19T05:06:29.080Z,0.91
2018-12-19T05:07:29.068Z,0.94
2018-12-19T05:08:29.102Z,0.98
2018-12-19T05:09:29.046Z,1.02
2018-12-19T05:10:29.035Z,1.02
2018-12-19T05:11:29.026Z,1.00
2018-12-19T05:12:29.013Z,0.98
2018-12-19T05:13:29.046Z,0.97
2018-12-19T05:14:28.993Z,1.04
2018-12-19T05:15:28.983Z,1.04
2018-12-19T05:16:28.971Z,1.00
2018-12-19T05:17:28.962Z,1.04
2018-12-19T05:18:28.976Z,1.08
2018-12-19T05:19:28.940Z,1.04
2018-12-19T05:20:28.930Z,0.97
2018-12-19T05:21:28.921Z,1.06
2018-12-19T05:22:28.912Z,1.00
2018-12-19T05:23:28.924Z,1.02
2018-12-19T05:24:28.886Z,1.04
2018-12-19T05:25:28.877Z,1.04
2018-12-19T05:26:28.865Z,1.05
2018-12-19T05:27:28.854Z,1.06
2018-12-19T05:28:28.869Z,1.02
2018-12-19T05:29:28.834Z,1.05
2018-12-19T05:30:28.825Z,1.15
2018-12-19T05:31:28.817Z,1.16
2018-12-19T05:32:28.802Z,1.12
2018-12-19T05:33:28.817Z,1.08
2018-12-19T05:34:28.781Z,1.08
2018-12-19T05:35:28.775Z,1.12
2018-12-19T05:36:28.759Z,1.09
2018-12-19T05:37:28.751Z,1.09
2018-12-19T05:38:28.762Z,1.04
2018-12-19T05:39:28.732Z,1.12
2018-12-19T05:40:28.716Z,1.14
2018-12-19T05:41:28.706Z,1.20
2018-12-19T05:42:28.694Z,1.18
2018-12-19T05:43:28.707Z,1.20
2018-12-19T05:44:28.673Z,1.15
2018-12-19T05:45:28.663Z,1.27
2018-12-19T05:46:28.653Z,1.30
2018-12-19T05:47:28.645Z,1.20
2018-12-19T05:48:28.654Z,1.16
2018-12-19T05:49:28.620Z,1.18
2018-12-19T05:50:28.610Z,1.18
2018-12-19T05:51:28.605Z,1.16
2018-12-19T05:52:28.590Z,1.15
2018-12-19T05:53:28.603Z,1.27
2018-12-19T05:54:28.564Z,1.23
2018-12-19T05:55:28.556Z,1.27
2018-12-19T05:56:28.545Z,1.29
2018-12-19T05:57:28.534Z,1.32
2018-12-19T05:58:28.550Z,1.30
2018-12-19T05:59:28.518Z,1.33
2018-12-19T06:00:28.506Z,1.36
2018-12-19T06:01:28.496Z,1.33
2018-12-19T06:02:28.480Z,1.30
2018-12-19T06:03:28.497Z,1.34
2018-12-19T06:04:28.459Z,1.27
2018-12-19T06:05:28.448Z,1.24
2018-12-19T06:06:28.440Z,1.22
2018-12-19T06:07:28.430Z,1.26
2018-12-19T06:08:28.444Z,1.16
2018-12-19T06:09:28.407Z,1.26
2018-12-19T06:10:28.406Z,1.32
2018-12-19T06:11:28.385Z,1.26
2018-12-19T06:12:28.374Z,1.23
2018-12-19T06:13:28.393Z,1.27
2018-12-19T06:14:28.353Z,1.29
2018-12-19T06:15:28.344Z,1.29
2018-12-19T06:16:28.329Z,1.29
2018-12-19T06:17:28.320Z,1.26
2018-12-19T06:18:28.346Z,1.29
2018-12-19T06:19:28.300Z,1.23
2018-12-19T06:20:28.287Z,1.24
2018-12-19T06:21:28.276Z,1.27
2018-12-19T06:22:28.268Z,1.15
2018-12-19T06:23:28.256Z,1.20
2018-12-19T06:24:28.270Z,1.20
2018-12-19T06:25:28.235Z,1.11
2018-12-19T06:26:28.223Z,1.20
2018-12-19T06:27:28.213Z,1.27
2018-12-19T06:28:28.202Z,1.23
2018-12-19T06:29:28.216Z,1.14
2018-12-19T06:30:28.184Z,1.14
2018-12-19T06:31:28.173Z,1.22
2018-12-19T06:32:28.162Z,1.23
2018-12-19T06:33:28.149Z,1.24
2018-12-19T06:34:28.162Z,1.23
2018-12-19T06:35:28.126Z,1.24
2018-12-19T06:36:28.118Z,1.24
2018-12-19T06:37:28.145Z,1.26
2018-12-19T06:38:28.120Z,1.26
2018-12-19T06:39:28.085Z,1.27
2018-12-19T06:40:32.614Z,1.29
2018-12-19T06:41:28.064Z,1.27
2018-12-19T06:42:28.056Z,1.27
2018-12-19T06:43:28.069Z,1.24
2018-12-19T06:44:28.031Z,1.23
2018-12-19T06:45:28.021Z,1.24
2018-12-19T06:46:28.013Z,1.20
2018-12-19T06:47:28.002Z,1.24
2018-12-19T06:48:28.014Z,1.32
2018-12-19T06:49:27.979Z,1.26
2018-12-19T06:50:27.970Z,1.26
2018-12-19T06:51:27.957Z,1.24
2018-12-19T06:52:27.949Z,1.27
2018-12-19T06:53:27.961Z,1.22
2018-12-19T06:54:27.925Z,1.23
2018-12-19T06:55:27.915Z,1.16
2018-12-19T06:56:27.943Z,1.23
2018-12-19T06:57:27.891Z,1.14
2018-12-19T06:58:27.907Z,1.22
2018-12-19T06:59:27.873Z,1.22
2018-12-19T07:00:27.861Z,1.20
2018-12-19T07:01:27.854Z,1.18
2018-12-19T07:02:27.843Z,1.24
2018-12-19T07:03:27.871Z,1.20
2018-12-19T07:04:27.821Z,1.24
2018-12-19T07:05:27.810Z,1.22
2018-12-19T07:06:27.799Z,1.26
2018-12-19T07:07:27.789Z,1.14
2018-12-19T07:08:27.804Z,1.24
2018-12-19T07:09:27.769Z,1.14
2018-12-19T07:10:27.757Z,1.18
2018-12-19T07:11:27.745Z,1.20
2018-12-19T07:12:27.741Z,1.23
2018-12-19T07:13:27.750Z,1.16
2018-12-19T07:14:27.715Z,1.16
2018-12-19T07:15:27.706Z,1.23
2018-12-19T07:16:27.693Z,1.20
2018-12-19T07:17:27.683Z,1.24
2018-12-19T07:18:27.698Z,1.30
2018-12-19T07:19:27.663Z,1.29
2018-12-19T07:20:27.650Z,1.14
2018-12-19T07:21:27.645Z,1.24
2018-12-19T07:22:27.629Z,1.12
2018-12-19T07:23:27.643Z,1.20
2018-12-19T07:24:27.611Z,1.22
2018-12-19T07:25:27.598Z,1.27
2018-12-19T07:26:27.587Z,1.24
2018-12-19T07:27:27.578Z,1.24
2018-12-19T07:28:27.589Z,1.24
2018-12-19T07:29:27.559Z,1.26
2018-12-19T07:30:27.544Z,1.30
2018-12-19T07:31:27.535Z,1.18
2018-12-19T07:32:27.528Z,1.29
2018-12-19T07:33:27.541Z,1.32
2018-12-19T07:34:27.505Z,1.32
2018-12-19T07:35:27.495Z,1.37
2018-12-19T07:36:27.482Z,1.33
2018-12-19T07:37:27.476Z,1.27
2018-12-19T07:38:27.484Z,1.34
2018-12-19T07:39:27.455Z,1.26
2018-12-19T07:40:27.446Z,1.33
2018-12-19T07:41:27.430Z,1.33
2018-12-19T07:42:27.421Z,1.30
2018-12-19T07:43:27.433Z,1.32
2018-12-19T07:44:27.398Z,1.26
2018-12-19T07:45:27.388Z,1.26
2018-12-19T07:46:27.377Z,1.30
2018-12-19T07:47:27.367Z,1.30
2018-12-19T07:48:27.382Z,1.32
2018-12-19T07:49:27.344Z,1.30
2018-12-19T07:50:27.334Z,1.40
2018-12-19T07:51:27.324Z,1.41
2018-12-19T07:52:27.402Z,1.36
2018-12-19T07:53:27.328Z,1.40
2018-12-19T07:54:27.391Z,1.36
2018-12-19T07:55:27.282Z,1.40
2018-12-19T07:56:27.271Z,1.42
2018-12-19T07:57:27.259Z,1.33
2018-12-19T07:58:27.615Z,1.36
2018-12-19T07:59:27.258Z,1.36
2018-12-19T08:00:27.577Z,1.33
2018-12-19T08:01:27.217Z,1.34
2018-12-19T08:02:27.208Z,1.36
2018-12-19T08:03:27.222Z,1.37
2018-12-19T08:04:27.189Z,1.40
2018-12-19T08:05:27.177Z,1.33
2018-12-19T08:06:27.164Z,1.34
2018-12-19T08:07:27.156Z,1.42
2018-12-19T08:08:27.169Z,1.44
2018-12-19T08:09:27.132Z,1.48
2018-12-19T08:10:27.122Z,1.45
2018-12-19T08:11:27.112Z,1.42
2018-12-19T08:12:27.141Z,1.52
2018-12-19T08:13:27.117Z,1.54
2018-12-19T08:14:27.081Z,1.45
2018-12-19T08:15:27.073Z,1.47
2018-12-19T08:16:27.059Z,1.42
2018-12-19T08:17:27.050Z,1.55
2018-12-19T08:18:27.063Z,1.45
2018-12-19T08:19:27.029Z,1.51
2018-12-19T08:20:27.018Z,1.45
2018-12-19T08:21:27.008Z,1.48
2018-12-19T08:22:26.998Z,1.44
2018-12-19T08:23:27.013Z,1.52
2018-12-19T08:24:26.977Z,1.48
2018-12-19T08:25:26.967Z,1.52
2018-12-19T08:26:26.960Z,1.51
2018-12-19T08:27:26.944Z,1.50
2018-12-19T08:28:26.958Z,1.54
2018-12-19T08:29:26.926Z,1.52
2018-12-19T08:30:26.914Z,1.48
2018-12-19T08:31:26.904Z,1.52
2018-12-19T08:32:26.899Z,1.52
2018-12-19T08:33:26.919Z,1.51
2018-12-19T08:34:26.874Z,1.52
2018-12-19T08:35:26.861Z,1.50
2018-12-19T08:36:26.850Z,1.55
2018-12-19T08:37:26.841Z,1.50
2018-12-19T08:38:26.855Z,1.62
2018-12-19T08:39:26.822Z,1.47
2018-12-19T08:40:26.812Z,1.51
2018-12-19T08:41:26.800Z,1.62
2018-12-19T08:42:26.788Z,1.59
2018-12-19T08:43:26.805Z,1.59
2018-12-19T08:44:26.768Z,1.63
2018-12-19T08:45:26.757Z,1.63
2018-12-19T08:46:26.747Z,1.59
2018-12-19T08:47:26.764Z,1.63
2018-12-19T08:48:26.726Z,1.68
2018-12-19T08:49:26.715Z,1.73
2018-12-19T08:50:26.704Z,1.76
2018-12-19T08:51:26.695Z,1.77
2018-12-19T08:52:26.711Z,1.76
2018-12-19T08:53:26.674Z,1.73
2018-12-19T08:54:26.664Z,1.76
2018-12-19T08:55:26.654Z,1.73
2018-12-19T08:56:26.642Z,1.77
2018-12-19T08:57:26.658Z,1.80
2018-12-19T08:58:26.627Z,1.77
2018-12-19T08:59:26.612Z,1.79
2018-12-19T09:00:26.600Z,1.79
2018-12-19T09:01:26.592Z,1.76
2018-12-19T09:02:26.609Z,1.77
2018-12-19T09:03:26.570Z,1.87
2018-12-19T09:04:26.561Z,1.77
2018-12-19T09:05:26.548Z,1.73
2018-12-19T09:06:26.538Z,1.72
2018-12-19T09:07:26.554Z,1.79
2018-12-19T09:08:26.518Z,1.81
2018-12-19T09:09:26.509Z,1.87
2018-12-19T09:10:26.496Z,1.93
2018-12-19T09:11:26.486Z,1.83
2018-12-19T09:12:26.500Z,1.72
2018-12-19T09:13:26.466Z,1.79
2018-12-19T09:14:26.464Z,1.70
2018-12-19T09:15:27.785Z,1.72
2018-12-19T09:16:26.435Z,1.77
2018-12-19T09:17:26.451Z,1.76
2018-12-19T09:18:26.412Z,1.79
2018-12-19T09:19:26.404Z,1.87
2018-12-19T09:20:26.413Z,1.84
2018-12-19T09:21:26.382Z,1.73
2018-12-19T09:22:26.401Z,1.72
2018-12-19T09:23:26.361Z,1.76
2018-12-19T09:24:26.350Z,1.70
2018-12-19T09:25:26.341Z,1.73
2018-12-19T09:26:26.331Z,1.63
2018-12-19T09:27:26.343Z,1.60
2018-12-19T09:28:26.311Z,1.62
2018-12-19T09:29:26.301Z,1.73
2018-12-19T09:30:26.286Z,1.76
2018-12-19T09:31:26.277Z,1.77
2018-12-19T09:32:26.293Z,1.79
2018-12-19T09:33:27.607Z,1.84
2018-12-19T09:34:26.244Z,1.76
2018-12-19T09:35:26.234Z,1.86
2018-12-19T09:36:26.225Z,1.87
2018-12-19T09:37:26.240Z,1.91
2018-12-19T09:38:26.202Z,1.79
2018-12-19T09:39:26.192Z,1.79
2018-12-19T09:40:26.181Z,1.72
2018-12-19T09:41:26.172Z,1.79
2018-12-19T09:42:26.192Z,1.80
2018-12-19T09:43:26.152Z,1.76
2018-12-19T09:44:26.141Z,1.80
2018-12-19T09:45:26.133Z,1.76
2018-12-19T09:46:26.118Z,1.73
2018-12-19T09:47:26.133Z,1.76
2018-12-19T09:48:26.099Z,1.84
2018-12-19T09:49:26.088Z,1.81
2018-12-19T09:50:26.082Z,1.73
2018-12-19T09:51:26.070Z,1.91
2018-12-19T09:52:26.084Z,1.99
2018-12-19T09:53:26.046Z,1.88
2018-12-19T09:54:26.036Z,1.95
2018-12-19T09:55:26.026Z,1.88
2018-12-19T09:56:26.014Z,1.88
2018-12-19T09:57:26.034Z,1.86
2018-12-19T09:58:25.993Z,2.06
2018-12-19T09:59:25.983Z,2.00
2018-12-19T10:00:25.974Z,1.98
2018-12-19T10:01:25.963Z,1.99
2018-12-19T10:02:25.977Z,1.99
2018-12-19T10:03:25.944Z,1.91
2018-12-19T10:04:25.930Z,1.98
2018-12-19T10:05:25.921Z,1.99
2018-12-19T10:06:25.921Z,2.03
2018-12-19T10:07:25.927Z,2.07
2018-12-19T10:08:25.890Z,2.06
2018-12-19T10:09:25.883Z,2.00
2018-12-19T10:10:25.869Z,1.99
2018-12-19T10:11:25.866Z,2.00
2018-12-19T10:12:25.875Z,2.00
2018-12-19T10:13:25.837Z,1.99
2018-12-19T10:14:25.831Z,2.10
2018-12-19T10:15:25.820Z,2.09
2018-12-19T10:16:25.806Z,2.07
2018-12-19T10:17:25.822Z,2.09
2018-12-19T10:18:25.784Z,2.09
2018-12-19T10:19:25.775Z,2.06
2018-12-19T10:20:25.765Z,2.07
2018-12-19T10:21:25.754Z,2.05
2018-12-19T10:22:25.769Z,2.18
2018-12-19T10:23:25.740Z,2.24
2018-12-19T10:24:25.722Z,2.24
2018-12-19T10:25:25.712Z,2.34
2018-12-19T10:26:25.700Z,2.35
2018-12-19T10:27:25.715Z,2.28
2018-12-19T10:28:25.679Z,2.24
2018-12-19T10:29:25.671Z,2.31
2018-12-19T10:30:25.657Z,2.24
2018-12-19T10:31:25.645Z,2.28
2018-12-19T10:32:25.658Z,2.23
2018-12-19T10:33:25.625Z,2.38
2018-12-19T10:34:25.614Z,2.38
2018-12-19T10:35:25.601Z,2.41
2018-12-19T10:36:25.590Z,2.39
2018-12-19T10:37:25.609Z,2.52
2018-12-19T10:38:25.572Z,2.45
2018-12-19T10:39:25.560Z,2.48
2018-12-19T10:40:25.550Z,2.42
2018-12-19T10:41:25.734Z,2.41
2018-12-19T10:42:25.557Z,2.49
2018-12-19T10:43:25.544Z,2.46
2018-12-19T10:44:25.504Z,2.43
2018-12-19T10:45:25.495Z,2.45
2018-12-19T10:46:25.519Z,2.53
2018-12-19T10:47:25.497Z,2.46
2018-12-19T10:48:25.461Z,2.45
2018-12-19T10:49:25.450Z,2.42
2018-12-19T10:50:25.439Z,2.53
2018-12-19T10:51:25.427Z,2.42
2018-12-19T10:52:25.443Z,2.42
2018-12-19T10:53:25.406Z,2.41
2018-12-19T10:54:25.395Z,2.43
2018-12-19T10:55:25.384Z,2.57
2018-12-19T10:56:25.374Z,2.49
2018-12-19T10:57:25.390Z,2.60
2018-12-19T10:58:25.351Z,2.59
2018-12-19T10:59:25.342Z,2.64
2018-12-19T11:00:25.330Z,2.63
2018-12-19T11:01:25.319Z,2.72
2018-12-19T11:02:25.334Z,2.61
2018-12-19T11:03:25.299Z,2.64
2018-12-19T11:04:25.288Z,2.66
2018-12-19T11:05:25.285Z,2.72
2018-12-19T11:06:25.265Z,2.74
2018-12-19T11:07:25.279Z,2.75
2018-12-19T11:08:25.246Z,2.77
2018-12-19T11:09:25.234Z,2.90
2018-12-19T11:10:25.225Z,2.87
2018-12-19T11:11:25.213Z,2.97
2018-12-19T11:12:25.230Z,2.97
2018-12-19T11:13:25.193Z,2.93
2018-12-19T11:14:25.181Z,2.97
2018-12-19T11:15:25.171Z,2.89
2018-12-19T11:16:25.158Z,2.87
2018-12-19T11:17:25.174Z,2.84
2018-12-19T11:18:25.139Z,2.90
2018-12-19T11:19:25.130Z,2.90
2018-12-19T11:20:25.116Z,2.99
2018-12-19T11:21:25.107Z,2.97
2018-12-19T11:22:25.122Z,3.14
2018-12-19T11:23:25.085Z,3.11
2018-12-19T11:24:25.074Z,2.97
2018-12-19T11:25:25.064Z,3.02
2018-12-19T11:26:25.053Z,3.03
2018-12-19T11:27:25.067Z,2.95
2018-12-19T11:28:25.030Z,2.85
2018-12-19T11:29:25.021Z,2.77
2018-12-19T11:30:25.010Z,2.82
2018-12-19T11:31:24.999Z,2.79
2018-12-19T11:32:25.012Z,2.78
2018-12-19T11:33:24.978Z,2.78
2018-12-19T11:34:24.968Z,2.67
2018-12-19T11:35:24.958Z,2.69
2018-12-19T11:36:24.977Z,2.72
2018-12-19T11:37:24.936Z,2.77
2018-12-19T11:38:24.927Z,2.84
2018-12-19T11:39:24.915Z,2.78
2018-12-19T11:40:24.911Z,2.84
2018-12-19T11:41:24.918Z,2.81
2018-12-19T11:42:24.882Z,2.81
2018-12-19T11:43:24.871Z,2.78
2018-12-19T11:44:24.867Z,2.75
2018-12-19T11:45:24.853Z,2.75
2018-12-19T11:46:24.865Z,2.81
2018-12-19T11:47:24.832Z,2.97
2018-12-19T11:48:24.820Z,2.90
2018-12-19T11:49:24.806Z,2.84
2018-12-19T11:50:24.798Z,2.87
2018-12-19T11:51:24.812Z,2.87
2018-12-19T11:52:24.776Z,2.92
2018-12-19T11:53:24.765Z,2.89
2018-12-19T11:54:24.761Z,2.87
2018-12-19T11:55:24.743Z,2.81
2018-12-19T11:56:24.759Z,2.89
2018-12-19T11:57:24.723Z,2.97
2018-12-19T11:58:24.710Z,2.84
2018-12-19T11:59:24.701Z,2.90
2018-12-19T12:00:24.696Z,2.85
2018-12-19T12:01:24.704Z,2.82
2018-12-19T12:02:24.672Z,2.87
2018-12-19T12:03:24.658Z,2.93
2018-12-19T12:04:24.650Z,3.02
2018-12-19T12:05:24.637Z,3.00
2018-12-19T12:06:24.651Z,3.06
2018-12-19T12:07:24.615Z,3.03
2018-12-19T12:08:24.605Z,2.92
2018-12-19T12:09:24.658Z,2.99
2018-12-19T12:10:24.586Z,3.06
2018-12-19T12:11:24.595Z,3.03
2018-12-19T12:12:24.562Z,2.96
2018-12-19T12:13:24.553Z,3.10
2018-12-19T12:14:24.545Z,3.06
2018-12-19T12:15:24.530Z,3.11
2018-12-19T12:16:24.543Z,3.18
2018-12-19T12:17:24.507Z,3.21
2018-12-19T12:18:24.497Z,3.10
2018-12-19T12:19:24.487Z,3.13
2018-12-19T12:20:24.476Z,3.14
2018-12-19T12:21:24.491Z,3.02
2018-12-19T12:22:24.454Z,3.00
2018-12-19T12:23:24.444Z,3.02
2018-12-19T12:24:24.434Z,3.13
2018-12-19T12:25:24.427Z,3.15
2018-12-19T12:26:24.438Z,3.21
2018-12-19T12:27:24.400Z,3.17
2018-12-19T12:28:24.393Z,3.18
2018-12-19T12:29:24.381Z,3.17
2018-12-19T12:30:24.368Z,3.14
2018-12-19T12:31:24.385Z,3.23
2018-12-19T12:32:24.355Z,3.17
2018-12-19T12:33:24.341Z,3.17
2018-12-19T12:34:24.327Z,3.14
2018-12-19T12:35:24.314Z,3.14
2018-12-19T12:36:24.330Z,3.18
2018-12-19T12:37:24.299Z,3.14
2018-12-19T12:38:24.285Z,3.11
2018-12-19T12:39:24.276Z,3.13
2018-12-19T12:40:24.262Z,3.06
2018-12-19T12:41:24.278Z,3.15
2018-12-19T12:42:24.240Z,3.20
2018-12-19T12:43:24.230Z,3.15
2018-12-19T12:44:24.220Z,3.26
2018-12-19T12:45:24.209Z,3.28
2018-12-19T12:46:24.224Z,3.40
2018-12-19T12:47:24.188Z,3.32
2018-12-19T12:48:24.179Z,3.29
2018-12-19T12:49:24.173Z,3.28
2018-12-19T12:50:24.155Z,3.32
2018-12-19T12:51:24.172Z,3.29
2018-12-19T12:52:24.133Z,3.26
2018-12-19T12:53:24.124Z,3.40
2018-12-19T12:54:24.112Z,3.39
2018-12-19T12:55:24.103Z,3.43
2018-12-19T12:56:24.116Z,3.51
2018-12-19T12:57:24.081Z,3.47
2018-12-19T12:58:24.072Z,3.40
2018-12-19T12:59:24.059Z,3.45
2018-12-19T13:00:24.051Z,3.35
2018-12-19T13:01:24.062Z,3.39
2018-12-19T13:02:24.026Z,3.35
2018-12-19T13:03:24.017Z,3.39
2018-12-19T13:04:24.005Z,3.32
2018-12-19T13:05:23.994Z,3.23
2018-12-19T13:06:24.009Z,3.26
2018-12-19T13:07:23.974Z,3.28
2018-12-19T13:08:23.964Z,3.26
2018-12-19T13:09:23.954Z,3.31
2018-12-19T13:10:23.942Z,3.28
2018-12-19T13:11:23.955Z,3.32
2018-12-19T13:12:23.919Z,3.23
2018-12-19T13:13:23.910Z,3.40
2018-12-19T13:14:23.900Z,3.32
2018-12-19T13:15:23.887Z,3.35
2018-12-19T13:16:23.911Z,3.39
2018-12-19T13:17:23.866Z,3.35
2018-12-19T13:18:23.856Z,3.42
2018-12-19T13:19:23.852Z,3.52
2018-12-19T13:20:23.836Z,3.47
2018-12-19T13:21:23.852Z,3.42
2018-12-19T13:22:23.814Z,3.42
2018-12-19T13:23:23.805Z,3.42
2018-12-19T13:24:23.795Z,3.43
2018-12-19T13:25:23.782Z,3.39
2018-12-19T13:26:23.796Z,3.31
2018-12-19T13:27:23.760Z,3.39
2018-12-19T13:28:23.752Z,3.33
2018-12-19T13:29:23.740Z,3.26
2018-12-19T13:30:23.731Z,3.32
2018-12-19T13:31:23.744Z,3.35
2018-12-19T13:32:23.709Z,3.36
2018-12-19T13:33:23.696Z,3.42
2018-12-19T13:34:23.685Z,3.42
2018-12-19T13:35:23.675Z,3.39
2018-12-19T13:36:23.687Z,3.31
2018-12-19T13:37:23.654Z,3.33
2018-12-19T13:38:23.641Z,3.42
2018-12-19T13:39:23.633Z,3.40
2018-12-19T13:40:23.619Z,3.35
2018-12-19T13:41:23.659Z,3.43
2018-12-19T13:42:23.695Z,3.54
2018-12-19T13:43:23.587Z,3.42
2018-12-19T13:44:23.578Z,3.40
2018-12-19T13:45:23.584Z,3.42
2018-12-19T13:46:23.587Z,3.40
2018-12-19T13:47:23.544Z,3.40
2018-12-19T13:48:23.537Z,3.47
2018-12-19T13:49:23.524Z,3.43
2018-12-19T13:50:24.916Z,3.43
2018-12-19T13:51:23.537Z,3.42
2018-12-19T13:52:23.497Z,3.39
2018-12-19T13:53:23.484Z,3.42
2018-12-19T13:54:23.518Z,3.39
2018-12-19T13:55:23.461Z,3.42
2018-12-19T13:56:23.476Z,3.33
2018-12-19T13:57:23.443Z,3.35
2018-12-19T13:58:23.428Z,3.42
2018-12-19T13:59:23.421Z,3.40
2018-12-19T14:00:23.522Z,3.43
2018-12-19T14:01:23.534Z,3.42
2018-12-19T14:02:23.390Z,3.43
2018-12-19T14:03:23.377Z,3.43
2018-12-19T14:04:23.366Z,3.45
2018-12-19T14:05:23.430Z,3.51
2018-12-19T14:06:23.344Z,3.43
2018-12-19T14:07:23.352Z,3.42
2018-12-19T14:08:23.325Z,3.47
2018-12-19T14:09:23.317Z,3.39
2018-12-19T14:10:23.328Z,3.48
2018-12-19T14:11:23.291Z,3.42
2018-12-19T14:12:23.282Z,3.43
2018-12-19T14:13:23.272Z,3.50
2018-12-19T14:14:23.261Z,3.47
2018-12-19T14:15:23.274Z,3.52
2018-12-19T14:16:24.204Z,3.50
2018-12-19T14:17:23.229Z,3.52
2018-12-19T14:18:23.222Z,3.50
2018-12-19T14:19:23.205Z,3.57
2018-12-19T14:20:23.223Z,3.51
2018-12-19T14:21:23.189Z,3.47
2018-12-19T14:22:23.175Z,3.54
2018-12-19T14:23:23.166Z,3.45
2018-12-19T14:24:23.153Z,3.39
2018-12-19T14:25:23.173Z,3.45
2018-12-19T14:26:23.135Z,3.45
2018-12-19T14:27:23.122Z,3.43
2018-12-19T14:28:23.112Z,3.51
2018-12-19T14:29:23.102Z,3.47
2018-12-19T14:30:23.128Z,3.47
2018-12-19T14:31:23.080Z,3.47
2018-12-19T14:32:23.069Z,3.52
2018-12-19T14:33:23.057Z,3.42
2018-12-19T14:34:23.047Z,3.43